createdAt,value
2024-05-09T00:00:58.802Z,88.67
2024-05-09T00:01:58.813Z,88.77
2024-05-09T00:02:58.755Z,88.57
2024-05-09T00:03:58.790Z,88.57
2024-05-09T00:04:58.774Z,88.51
2024-05-09T00:05:58.831Z,88.61
2024-05-09T00:06:58.718Z,88.71
2024-05-09T00:07:58.750Z,88.81
2024-05-09T00:08:58.689Z,88.92
2024-05-09T00:09:58.664Z,88.92
2024-05-09T00:10:58.739Z,88.92
2024-05-09T00:11:58.794Z,88.81
2024-05-09T00:12:58.647Z,88.81
2024-05-09T00:13:58.676Z,88.81
2024-05-09T00:14:58.607Z,88.92
2024-05-09T00:15:58.591Z,88.92
2024-05-09T00:16:58.607Z,88.71
2024-05-09T00:17:58.786Z,88.81
2024-05-09T00:18:58.596Z,88.92
2024-05-09T00:19:58.651Z,89.01
2024-05-09T00:20:58.594Z,89.12
2024-05-09T00:21:58.539Z,89.12
2024-05-09T00:22:58.594Z,89.26
2024-05-09T00:23:58.504Z,89.36
2024-05-09T00:24:58.485Z,89.26
2024-05-09T00:25:58.501Z,89.26
2024-05-09T00:26:58.475Z,89.36
2024-05-09T00:27:58.468Z,89.57
2024-05-09T00:28:58.493Z,89.77
2024-05-09T00:29:58.436Z,89.87
2024-05-09T00:30:58.433Z,90.12
2024-05-09T00:31:58.520Z,90.32
2024-05-09T00:32:58.562Z,90.42
2024-05-09T00:33:58.620Z,90.53
2024-05-09T00:34:58.403Z,90.63
2024-05-09T00:35:58.375Z,90.77
2024-05-09T00:36:58.356Z,90.98
2024-05-09T00:37:58.431Z,91.08
2024-05-09T00:38:58.352Z,91.18
2024-05-09T00:39:58.316Z,91.28
2024-05-09T00:40:58.324Z,91.39
2024-05-09T00:41:58.303Z,91.49
2024-05-09T00:42:58.278Z,91.49
2024-05-09T00:43:58.339Z,91.59
2024-05-09T00:44:58.266Z,91.59
2024-05-09T00:45:58.245Z,91.69
2024-05-09T00:46:58.249Z,91.69
2024-05-09T00:47:58.382Z,91.69
2024-05-09T00:48:58.347Z,91.69
2024-05-09T00:49:58.218Z,91.59
2024-05-09T00:50:58.228Z,91.49
2024-05-09T00:51:58.176Z,91.59
2024-05-09T00:52:58.232Z,91.49
2024-05-09T00:53:58.175Z,91.49
2024-05-09T00:54:58.151Z,91.59
2024-05-09T00:55:58.196Z,91.69
2024-05-09T00:56:58.124Z,91.69
2024-05-09T00:57:58.115Z,91.49
2024-05-09T00:58:58.148Z,91.59
2024-05-09T00:59:58.098Z,91.49
2024-05-09T01:00:58.106Z,91.49
2024-05-09T01:01:58.110Z,91.49
2024-05-09T01:02:58.237Z,91.49
2024-05-09T01:03:58.200Z,91.39
2024-05-09T01:04:58.088Z,91.49
2024-05-09T01:05:58.153Z,91.49
2024-05-09T01:06:58.016Z,91.49
2024-05-09T01:07:58.038Z,91.39
2024-05-09T01:08:57.993Z,91.49
2024-05-09T01:09:57.975Z,91.28
2024-05-09T01:10:58.167Z,91.28
2024-05-09T01:11:58.021Z,91.39
2024-05-09T01:12:57.988Z,91.49
2024-05-09T01:13:57.983Z,91.28
2024-05-09T01:14:57.924Z,91.28
2024-05-09T01:15:57.929Z,91.39
2024-05-09T01:16:57.971Z,91.39
2024-05-09T01:17:58.252Z,91.39
2024-05-09T01:18:57.943Z,91.18
2024-05-09T01:19:57.933Z,91.18
2024-05-09T01:20:57.978Z,91.08
2024-05-09T01:21:57.863Z,91.18
2024-05-09T01:22:57.854Z,91.18
2024-05-09T01:23:57.820Z,91.18
2024-05-09T01:24:57.807Z,91.22
2024-05-09T01:25:57.808Z,91.12
2024-05-09T01:26:57.811Z,91.02
2024-05-09T01:27:57.782Z,91.02
2024-05-09T01:28:57.773Z,91.12
2024-05-09T01:29:57.764Z,91.22
2024-05-09T01:30:57.741Z,91.33
2024-05-09T01:31:57.860Z,91.33
2024-05-09T01:32:57.849Z,91.43
2024-05-09T01:33:57.768Z,91.33
2024-05-09T01:34:57.738Z,91.27
2024-05-09T01:35:57.681Z,91.37
2024-05-09T01:36:57.665Z,91.37
2024-05-09T01:37:57.714Z,91.57
2024-05-09T01:38:57.649Z,91.78
2024-05-09T01:39:57.633Z,91.88
2024-05-09T01:40:57.655Z,91.98
2024-05-09T01:41:57.621Z,92.19
2024-05-09T01:42:57.627Z,92.19
2024-05-09T01:43:57.632Z,92.29
2024-05-09T01:44:57.576Z,92.49
2024-05-09T01:45:57.570Z,92.49
2024-05-09T01:46:57.577Z,92.49
2024-05-09T01:47:57.741Z,92.49
2024-05-09T01:48:57.667Z,92.39
2024-05-09T01:49:57.611Z,92.39
2024-05-09T01:50:57.623Z,92.39
2024-05-09T01:51:57.509Z,92.19
2024-05-09T01:52:57.561Z,92.08
2024-05-09T01:53:57.479Z,92.08
2024-05-09T01:55:00.695Z,92.23
2024-05-09T01:55:57.476Z,92.33
2024-05-09T01:56:58.406Z,92.33
2024-05-09T01:57:57.450Z,92.33
2024-05-09T01:58:57.458Z,92.43
2024-05-09T01:59:58.868Z,92.54
2024-05-09T02:00:57.426Z,92.54
2024-05-09T02:01:58.042Z,92.64
2024-05-09T02:02:57.486Z,92.74
2024-05-09T02:03:57.542Z,92.74
2024-05-09T02:04:57.432Z,92.74
2024-05-09T02:05:57.383Z,92.74
2024-05-09T02:06:57.331Z,92.84
2024-05-09T02:07:57.388Z,92.74
2024-05-09T02:08:57.303Z,92.64
2024-05-09T02:09:57.285Z,92.54
2024-05-09T02:10:57.393Z,92.33
2024-05-09T02:11:57.379Z,92.33
2024-05-09T02:12:57.276Z,92.33
2024-05-09T02:13:57.281Z,92.33
2024-05-09T02:14:57.240Z,92.33
2024-05-09T02:15:57.220Z,92.33
2024-05-09T02:16:57.285Z,92.43
2024-05-09T02:17:57.460Z,92.54
2024-05-09T02:18:57.254Z,92.54
2024-05-09T02:19:57.237Z,92.54
2024-05-09T02:20:57.213Z,92.33
2024-05-09T02:21:57.180Z,92.23
2024-05-09T02:22:57.173Z,92.02
2024-05-09T02:23:57.131Z,92.02
2024-05-09T02:24:57.114Z,92.13
2024-05-09T02:25:57.117Z,92.27
2024-05-09T02:26:57.128Z,92.37
2024-05-09T02:27:57.112Z,92.58
2024-05-09T02:28:57.213Z,92.68
2024-05-09T02:29:57.060Z,92.78
2024-05-09T02:30:57.047Z,92.99
2024-05-09T02:31:57.157Z,93.09
2024-05-09T02:32:57.165Z,92.99
2024-05-09T02:33:57.168Z,92.99
2024-05-09T02:34:57.137Z,92.88
2024-05-09T02:35:56.995Z,92.93
2024-05-09T02:36:56.998Z,92.93
2024-05-09T02:37:57.046Z,93.03
2024-05-09T02:38:56.959Z,93.24
2024-05-09T02:39:56.951Z,93.33
2024-05-09T02:40:56.967Z,93.54
2024-05-09T02:41:56.941Z,93.54
2024-05-09T02:42:56.917Z,93.54
2024-05-09T02:43:56.974Z,93.44
2024-05-09T02:44:56.894Z,93.48
2024-05-09T02:45:56.873Z,93.65
2024-05-09T02:46:56.902Z,93.65
2024-05-09T02:47:57.273Z,93.54
2024-05-09T02:48:56.924Z,93.54
2024-05-09T02:49:56.868Z,93.65
2024-05-09T02:50:57.056Z,93.65
2024-05-09T02:51:56.828Z,93.79
2024-05-09T02:52:56.816Z,93.89
2024-05-09T02:53:56.782Z,93.79
2024-05-09T02:54:56.767Z,93.89
2024-05-09T02:55:56.786Z,93.89
2024-05-09T02:56:56.775Z,94.10
2024-05-09T02:57:56.743Z,94.20
2024-05-09T02:58:56.835Z,94.20
2024-05-09T02:59:56.717Z,94.30
2024-05-09T03:00:56.714Z,94.40
2024-05-09T03:01:56.824Z,94.46
2024-05-09T03:02:56.828Z,94.26
2024-05-09T03:03:56.846Z,93.95
2024-05-09T03:04:56.762Z,93.65
2024-05-09T03:05:56.641Z,93.44
2024-05-09T03:06:56.647Z,93.48
2024-05-09T03:07:56.662Z,93.48
2024-05-09T03:08:56.616Z,93.28
2024-05-09T03:09:56.597Z,93.28
2024-05-09T03:10:56.622Z,93.28
2024-05-09T03:11:56.701Z,93.38
2024-05-09T03:12:56.561Z,93.48
2024-05-09T03:13:56.639Z,93.48
2024-05-09T03:14:56.569Z,93.59
2024-05-09T03:15:56.535Z,93.63
2024-05-09T03:16:56.586Z,93.69
2024-05-09T03:17:56.594Z,93.69
2024-05-09T03:18:56.588Z,93.79
2024-05-09T03:19:56.610Z,93.69
2024-05-09T03:20:56.503Z,93.73
2024-05-09T03:21:56.476Z,93.63
2024-05-09T03:22:57.093Z,93.73
2024-05-09T03:23:56.441Z,93.84
2024-05-09T03:24:56.457Z,93.93
2024-05-09T03:25:56.475Z,93.84
2024-05-09T03:26:56.444Z,93.84
2024-05-09T03:27:56.390Z,93.84
2024-05-09T03:28:56.471Z,93.93
2024-05-09T03:29:56.368Z,94.04
2024-05-09T03:30:56.357Z,94.14
2024-05-09T03:31:56.481Z,94.24
2024-05-09T03:32:56.477Z,94.24
2024-05-09T03:33:56.452Z,94.24
2024-05-09T03:34:56.345Z,94.34
2024-05-09T03:35:56.295Z,94.10
2024-05-09T03:36:56.292Z,94.10
2024-05-09T03:37:56.328Z,94.04
2024-05-09T03:38:56.260Z,94.04
2024-05-09T03:39:56.247Z,94.04
2024-05-09T03:40:56.327Z,94.04
2024-05-09T03:41:56.230Z,94.14
2024-05-09T03:42:56.245Z,94.24
2024-05-09T03:43:56.216Z,94.10
2024-05-09T03:44:56.198Z,94.14
2024-05-09T03:45:56.183Z,94.04
2024-05-09T03:46:56.217Z,93.93
2024-05-09T03:47:56.476Z,93.93
2024-05-09T03:48:56.192Z,93.84
2024-05-09T03:49:56.206Z,93.93
2024-05-09T03:50:56.134Z,94.04
2024-05-09T03:51:56.109Z,94.04
2024-05-09T03:52:56.147Z,94.14
2024-05-09T03:53:56.092Z,94.04
2024-05-09T03:54:56.076Z,93.93
2024-05-09T03:55:56.152Z,93.84
2024-05-09T03:56:56.055Z,93.93
2024-05-09T03:57:56.063Z,93.93
2024-05-09T03:58:56.069Z,94.04
2024-05-09T03:59:56.024Z,94.14
2024-05-09T04:00:56.048Z,94.14
2024-05-09T04:01:56.197Z,94.04
2024-05-09T04:02:56.159Z,94.04
2024-05-09T04:03:56.177Z,94.14
2024-05-09T04:04:55.981Z,94.14
2024-05-09T04:05:55.949Z,94.24
2024-05-09T04:06:55.950Z,94.14
2024-05-09T04:07:55.967Z,94.14
2024-05-09T04:08:55.917Z,94.14
2024-05-09T04:09:55.907Z,94.24
2024-05-09T04:10:55.930Z,94.24
2024-05-09T04:11:55.991Z,94.34
2024-05-09T04:12:55.883Z,94.34
2024-05-09T04:13:55.944Z,94.34
2024-05-09T04:14:55.844Z,94.24
2024-05-09T04:15:55.835Z,94.29
2024-05-09T04:16:55.858Z,94.34
2024-05-09T04:17:56.294Z,94.34
2024-05-09T04:18:55.909Z,94.34
2024-05-09T04:19:55.848Z,94.34
2024-05-09T04:20:55.802Z,94.34
2024-05-09T04:21:55.762Z,94.34
2024-05-09T04:22:55.882Z,94.24
2024-05-09T04:23:55.741Z,94.24
2024-05-09T04:24:55.724Z,94.34
2024-05-09T04:25:55.761Z,94.45
2024-05-09T04:26:55.706Z,94.34
2024-05-09T04:27:55.868Z,94.34
2024-05-09T04:28:55.728Z,94.24
2024-05-09T04:29:55.695Z,94.24
2024-05-09T04:30:55.671Z,94.14
2024-05-09T04:31:55.732Z,94.14
2024-05-09T04:32:55.839Z,94.04
2024-05-09T04:33:55.769Z,94.04
2024-05-09T04:34:55.682Z,94.04
2024-05-09T04:35:55.608Z,93.93
2024-05-09T04:36:55.591Z,93.73
2024-05-09T04:37:55.603Z,93.73
2024-05-09T04:38:55.573Z,93.73
2024-05-09T04:39:55.554Z,93.84
2024-05-09T04:40:55.640Z,94.04
2024-05-09T04:41:55.544Z,94.04
2024-05-09T04:42:55.549Z,94.14
2024-05-09T04:44:02.600Z,94.14
2024-05-09T04:44:58.846Z,94.14
2024-05-09T04:45:55.492Z,94.14
2024-05-09T04:46:55.524Z,94.24
2024-05-09T04:47:55.707Z,94.24
2024-05-09T04:48:55.587Z,94.34
2024-05-09T04:49:55.528Z,94.34
2024-05-09T04:50:55.478Z,94.45
2024-05-09T04:51:55.432Z,94.34
2024-05-09T04:52:55.472Z,94.34
2024-05-09T04:53:55.398Z,94.34
2024-05-09T04:54:58.437Z,94.45
2024-05-09T04:55:55.408Z,94.45
2024-05-09T04:56:55.363Z,94.55
2024-05-09T04:57:55.364Z,94.65
2024-05-09T04:58:55.386Z,94.75
2024-05-09T04:59:55.332Z,94.85
2024-05-09T05:00:55.344Z,94.75
2024-05-09T05:01:55.413Z,94.65
2024-05-09T05:02:55.444Z,94.75
2024-05-09T05:03:56.232Z,94.85
2024-05-09T05:04:55.395Z,94.81
2024-05-09T05:05:55.349Z,94.71
2024-05-09T05:06:55.253Z,94.65
2024-05-09T05:07:55.299Z,94.65
2024-05-09T05:08:55.249Z,94.71
2024-05-09T05:09:55.212Z,94.92
2024-05-09T05:10:55.309Z,94.92
2024-05-09T05:11:55.248Z,95.12
2024-05-09T05:12:55.386Z,95.22
2024-05-09T05:13:55.178Z,95.12
2024-05-09T05:14:55.165Z,94.92
2024-05-09T05:15:55.147Z,94.81
2024-05-09T05:17:55.285Z,94.51
2024-05-09T05:18:55.213Z,94.51
2024-05-09T05:19:55.225Z,94.40
2024-05-09T05:20:55.183Z,94.40
2024-05-09T05:21:55.079Z,94.40
2024-05-09T05:22:55.081Z,94.51
2024-05-09T05:23:55.063Z,94.51
2024-05-09T05:24:55.041Z,94.51
2024-05-09T05:25:55.518Z,94.36
2024-05-09T05:26:55.023Z,94.36
2024-05-09T05:27:55.014Z,94.36
2024-05-09T05:28:55.135Z,94.36
2024-05-09T05:29:54.986Z,94.26
2024-05-09T05:30:54.965Z,94.26
2024-05-09T05:31:55.120Z,94.15
2024-05-09T05:32:55.115Z,94.15
2024-05-09T05:33:55.031Z,93.95
2024-05-09T05:34:54.938Z,93.95
2024-05-09T05:35:54.917Z,93.95
2024-05-09T05:36:54.920Z,93.95
2024-05-09T05:37:54.965Z,93.95
2024-05-09T05:38:54.956Z,93.95
2024-05-09T05:39:54.876Z,93.85
2024-05-09T05:40:55.114Z,93.85
2024-05-09T05:41:54.839Z,93.80
2024-05-09T05:42:54.838Z,93.80
2024-05-09T05:43:54.852Z,93.80
2024-05-09T05:44:54.807Z,93.80
2024-05-09T05:45:54.807Z,93.80
2024-05-09T05:46:54.815Z,93.91
2024-05-09T05:47:55.078Z,93.91
2024-05-09T05:48:54.944Z,93.91
2024-05-09T05:49:54.796Z,93.80
2024-05-09T05:50:54.771Z,93.80
2024-05-09T05:51:54.732Z,93.91
2024-05-09T05:52:54.828Z,93.91
2024-05-09T05:53:54.726Z,93.86
2024-05-09T05:54:54.711Z,93.86
2024-05-09T05:55:54.766Z,93.86
2024-05-09T05:56:54.693Z,93.86
2024-05-09T05:57:54.699Z,93.76
2024-05-09T05:58:54.702Z,93.76
2024-05-09T05:59:54.641Z,93.66
2024-05-09T06:00:54.728Z,93.76
2024-05-09T06:01:54.750Z,93.76
2024-05-09T06:02:54.700Z,93.76
2024-05-09T06:03:58.185Z,93.62
2024-05-09T06:04:54.684Z,93.71
2024-05-09T06:05:56.191Z,93.82
2024-05-09T06:06:54.608Z,93.71
2024-05-09T06:07:54.583Z,93.71
2024-05-09T06:08:55.531Z,93.62
2024-05-09T06:09:54.524Z,93.41
2024-05-09T06:10:54.636Z,93.41
2024-05-09T06:11:54.712Z,93.41
2024-05-09T06:12:54.495Z,93.26
2024-05-09T06:13:54.527Z,93.31
2024-05-09T06:14:54.466Z,93.26
2024-05-09T06:15:54.457Z,93.26
2024-05-09T06:16:57.695Z,93.37
2024-05-09T06:17:54.723Z,93.37
2024-05-09T06:18:54.609Z,93.37
2024-05-09T06:19:54.478Z,93.37
2024-05-09T06:20:54.443Z,93.26
2024-05-09T06:21:54.395Z,93.37
2024-05-09T06:22:54.386Z,93.37
2024-05-09T06:23:54.391Z,93.32
2024-05-09T06:24:54.353Z,93.32
2024-05-09T06:25:54.410Z,93.32
2024-05-09T06:26:54.336Z,93.22
2024-05-09T06:27:54.337Z,93.22
2024-05-09T06:28:54.359Z,93.32
2024-05-09T06:29:54.298Z,93.22
2024-05-09T06:30:54.284Z,93.12
2024-05-09T06:31:55.894Z,93.22
2024-05-09T06:32:54.377Z,93.07
2024-05-09T06:33:54.413Z,93.07
2024-05-09T06:34:54.283Z,92.87
2024-05-09T06:35:54.228Z,92.97
2024-05-09T06:36:54.286Z,92.87
2024-05-09T06:37:54.260Z,92.97
2024-05-09T06:38:54.274Z,93.07
2024-05-09T06:39:54.177Z,93.18
2024-05-09T06:40:54.222Z,93.28
2024-05-09T06:41:54.174Z,93.24
2024-05-09T06:42:54.153Z,93.24
2024-05-09T06:43:54.210Z,93.33
2024-05-09T06:44:54.115Z,93.24
2024-05-09T06:45:54.118Z,92.93
2024-05-09T06:46:55.828Z,92.72
2024-05-09T06:47:54.303Z,92.58
2024-05-09T06:48:54.336Z,92.38
2024-05-09T06:49:54.098Z,92.38
2024-05-09T06:50:54.110Z,92.38
2024-05-09T06:51:54.043Z,92.48
2024-05-09T06:52:54.032Z,92.58
2024-05-09T06:53:54.009Z,92.48
2024-05-09T06:54:54.000Z,92.44
2024-05-09T06:55:54.052Z,92.33
2024-05-09T06:56:53.996Z,92.03
2024-05-09T06:57:53.964Z,91.52
2024-05-09T06:58:53.990Z,91.42
2024-05-09T06:59:53.956Z,91.31
2024-05-09T07:00:54.014Z,91.31
2024-05-09T07:01:53.979Z,91.38
2024-05-09T07:02:53.984Z,91.27
2024-05-09T07:03:53.963Z,91.27
2024-05-09T07:04:54.121Z,91.27
2024-05-09T07:05:53.937Z,91.27
2024-05-09T07:06:53.900Z,91.27
2024-05-09T07:07:53.913Z,91.23
2024-05-09T07:08:53.925Z,90.92
2024-05-09T07:09:53.826Z,90.72
2024-05-09T07:10:53.935Z,90.52
2024-05-09T07:11:53.971Z,90.42
2024-05-09T07:12:53.799Z,90.31
2024-05-09T07:13:53.866Z,90.17
2024-05-09T07:14:53.775Z,90.07
2024-05-09T07:15:53.766Z,89.97
2024-05-09T07:16:53.958Z,89.66
2024-05-09T07:17:53.987Z,89.46
2024-05-09T07:18:53.972Z,89.26
2024-05-09T07:19:53.753Z,89.11
2024-05-09T07:20:53.761Z,88.91
2024-05-09T07:21:53.715Z,88.71
2024-05-09T07:22:53.694Z,88.71
2024-05-09T07:23:53.757Z,88.71
2024-05-09T07:24:53.651Z,88.71
2024-05-09T07:25:53.708Z,88.56
2024-05-09T07:26:53.656Z,88.46
2024-05-09T07:27:53.624Z,88.16
2024-05-09T07:28:53.636Z,87.85
2024-05-09T07:29:53.611Z,87.04
2024-05-09T07:30:53.597Z,86.94
2024-05-09T07:31:53.650Z,86.94
2024-05-09T07:32:53.854Z,87.04
2024-05-09T07:33:53.836Z,87.00
2024-05-09T07:34:53.602Z,86.90
2024-05-09T07:35:53.541Z,86.80
2024-05-09T07:36:53.514Z,86.59
2024-05-09T07:37:54.316Z,86.45
2024-05-09T07:38:53.542Z,86.25
2024-05-09T07:39:53.486Z,85.84
2024-05-09T07:40:53.516Z,85.74
2024-05-09T07:41:53.480Z,85.64
2024-05-09T07:42:53.467Z,85.50
2024-05-09T07:43:53.484Z,85.19
2024-05-09T07:44:53.423Z,84.78
2024-05-09T07:45:55.358Z,84.89
2024-05-09T07:48:13.686Z,84.78
2024-05-09T07:49:43.993Z,84.38
2024-05-09T07:50:35.115Z,84.28
2024-05-09T07:52:38.242Z,83.73
2024-05-09T07:53:21.681Z,83.63
2024-05-09T07:53:35.692Z,83.12
2024-05-09T07:53:57.133Z,83.12
2024-05-09T07:54:54.516Z,82.98
2024-05-09T07:55:53.562Z,82.58
2024-05-09T07:56:53.534Z,82.48
2024-05-09T07:57:53.352Z,82.28
2024-05-09T07:58:53.551Z,82.28
2024-05-09T07:59:53.247Z,81.77
2024-05-09T08:00:53.427Z,81.73
2024-05-09T08:01:53.340Z,81.12
2024-05-09T08:02:53.286Z,81.32
2024-05-09T08:03:53.573Z,81.02
2024-05-09T08:04:53.344Z,80.41
2024-05-09T08:05:53.376Z,80.58
2024-05-09T08:06:53.214Z,80.27
2024-05-09T08:07:53.169Z,79.77
2024-05-09T08:08:53.183Z,79.77
2024-05-09T08:09:53.180Z,79.97
2024-05-09T08:10:53.281Z,79.83
2024-05-09T08:11:53.207Z,79.93
2024-05-09T08:12:53.126Z,80.34
2024-05-09T08:13:53.100Z,80.54
2024-05-09T08:14:53.132Z,80.50
2024-05-09T08:15:53.231Z,80.40
2024-05-09T08:16:53.189Z,80.00
2024-05-09T08:17:53.101Z,79.90
2024-05-09T08:18:54.024Z,79.75
2024-05-09T08:19:53.095Z,79.75
2024-05-09T08:20:53.019Z,79.66
2024-05-09T08:21:53.043Z,79.25
2024-05-09T08:22:52.976Z,78.85
2024-05-09T08:23:52.974Z,78.44
2024-05-09T08:24:53.119Z,77.90
2024-05-09T08:25:52.980Z,77.50
2024-05-09T08:26:52.966Z,77.80
2024-05-09T08:27:53.089Z,77.80
2024-05-09T08:28:52.925Z,77.86
2024-05-09T08:29:52.931Z,77.66
2024-05-09T08:30:52.994Z,77.46
2024-05-09T08:31:52.923Z,77.46
2024-05-09T08:32:52.933Z,77.36
2024-05-09T08:33:53.174Z,77.32
2024-05-09T08:34:52.902Z,77.22
2024-05-09T08:35:52.831Z,76.62
2024-05-09T08:36:52.879Z,76.42
2024-05-09T08:37:52.840Z,75.87
2024-05-09T08:38:52.811Z,74.56
2024-05-09T08:39:52.846Z,74.40
2024-05-09T08:40:52.795Z,74.96
2024-05-09T08:41:52.761Z,74.46
2024-05-09T08:42:52.977Z,74.56
2024-05-09T08:43:52.752Z,74.16
2024-05-09T08:44:52.728Z,74.05
2024-05-09T08:45:52.762Z,74.05
2024-05-09T08:46:52.708Z,73.35
2024-05-09T08:47:52.855Z,73.32
2024-05-09T08:48:53.019Z,72.91
2024-05-09T08:49:52.794Z,72.61
2024-05-09T08:50:52.894Z,73.32
2024-05-09T08:51:52.703Z,73.72
2024-05-09T08:52:52.714Z,73.38
2024-05-09T08:53:52.691Z,72.88
2024-05-09T08:54:52.753Z,73.18
2024-05-09T08:55:52.730Z,72.98
2024-05-09T08:56:52.658Z,72.78
2024-05-09T08:57:52.689Z,72.47
2024-05-09T08:58:52.579Z,72.17
2024-05-09T08:59:52.578Z,69.05
2024-05-09T09:00:52.742Z,69.12
2024-05-09T09:01:52.627Z,69.92
2024-05-09T09:02:52.551Z,70.12
2024-05-09T09:03:52.736Z,69.72
2024-05-09T09:04:52.607Z,68.61
2024-05-09T09:05:52.603Z,69.12
2024-05-09T09:06:54.761Z,68.58
2024-05-09T09:07:52.462Z,67.88
2024-05-09T09:08:52.472Z,67.77
2024-05-09T09:09:52.536Z,66.67
2024-05-09T09:10:52.469Z,66.06
2024-05-09T09:11:52.505Z,66.27
2024-05-09T09:12:52.435Z,66.47
2024-05-09T09:13:52.439Z,66.47
2024-05-09T09:14:52.388Z,66.06
2024-05-09T09:15:52.430Z,65.76
2024-05-09T09:16:52.360Z,64.22
2024-05-09T09:17:52.523Z,64.12
2024-05-09T09:18:52.637Z,64.32
2024-05-09T09:19:52.444Z,64.62
2024-05-09T09:20:52.356Z,64.52
2024-05-09T09:21:52.319Z,64.52
2024-05-09T09:22:52.299Z,64.49
2024-05-09T09:23:52.295Z,63.68
2024-05-09T09:24:52.291Z,63.68
2024-05-09T09:25:52.280Z,63.59
2024-05-09T09:26:52.262Z,62.85
2024-05-09T09:27:52.281Z,61.94
2024-05-09T09:28:52.222Z,62.05
2024-05-09T09:29:52.208Z,61.74
2024-05-09T09:30:52.215Z,61.85
2024-05-09T09:31:52.205Z,61.31
2024-05-09T09:32:52.346Z,61.11
2024-05-09T09:33:52.510Z,59.91
2024-05-09T09:34:52.184Z,60.21
2024-05-09T09:35:52.136Z,60.31
2024-05-09T09:36:52.218Z,59.98
2024-05-09T09:37:52.113Z,59.78
2024-05-09T09:38:52.113Z,59.38
2024-05-09T09:39:52.133Z,59.67
2024-05-09T09:40:58.839Z,59.27
2024-05-09T09:41:52.083Z,58.97
2024-05-09T09:42:52.080Z,58.87
2024-05-09T09:43:52.043Z,58.47
2024-05-09T09:45:01.874Z,58.34
2024-05-09T09:45:53.693Z,59.45
2024-05-09T09:46:52.056Z,59.05
2024-05-09T09:47:52.169Z,58.54
2024-05-09T09:48:52.141Z,57.74
2024-05-09T09:49:52.033Z,57.81
2024-05-09T09:50:52.295Z,58.01
2024-05-09T09:51:51.991Z,57.81
2024-05-09T09:52:51.959Z,57.48
2024-05-09T09:53:51.933Z,55.98
2024-05-09T09:54:51.986Z,56.28
2024-05-09T09:55:51.951Z,56.08
2024-05-09T09:56:51.904Z,55.85
2024-05-09T09:57:51.942Z,56.05
2024-05-09T09:58:51.918Z,55.15
2024-05-09T09:59:51.874Z,54.82
2024-05-09T10:00:51.910Z,55.02
2024-05-09T10:01:52.000Z,55.02
2024-05-09T10:02:51.863Z,55.02
2024-05-09T10:03:51.976Z,54.12
2024-05-09T10:04:51.878Z,54.20
2024-05-09T10:05:51.869Z,53.59
2024-05-09T10:06:51.831Z,53.59
2024-05-09T10:07:51.780Z,53.59
2024-05-09T10:08:51.785Z,53.59
2024-05-09T10:09:51.819Z,53.97
2024-05-09T10:10:51.992Z,54.07
2024-05-09T10:11:54.446Z,54.17
2024-05-09T10:12:52.789Z,52.97
2024-05-09T10:13:51.754Z,52.07
2024-05-09T10:14:51.696Z,52.55
2024-05-09T10:15:51.992Z,52.44
2024-05-09T10:16:51.671Z,51.67
2024-05-09T10:17:51.741Z,51.94
2024-05-09T10:18:51.913Z,52.55
2024-05-09T10:19:51.825Z,52.24
2024-05-09T10:20:51.685Z,52.14
2024-05-09T10:21:51.675Z,52.34
2024-05-09T10:22:51.623Z,52.42
2024-05-09T10:23:51.611Z,52.32
2024-05-09T10:24:51.603Z,52.12
2024-05-09T10:25:51.569Z,51.22
2024-05-09T10:26:51.575Z,51.74
2024-05-09T10:27:51.573Z,51.94
2024-05-09T10:28:51.553Z,52.64
2024-05-09T10:29:51.546Z,52.77
2024-05-09T10:30:51.578Z,53.19
2024-05-09T10:31:51.530Z,53.12
2024-05-09T10:32:51.599Z,53.72
2024-05-09T10:33:52.583Z,53.82
2024-05-09T10:34:51.525Z,54.22
2024-05-09T10:35:51.477Z,54.32
2024-05-09T10:36:51.520Z,54.60
2024-05-09T10:37:51.437Z,55.40
2024-05-09T10:38:51.481Z,55.70
2024-05-09T10:39:51.539Z,56.70
2024-05-09T10:40:51.477Z,56.20
2024-05-09T10:41:51.419Z,55.90
2024-05-09T10:42:51.384Z,56.10
2024-05-09T10:43:51.568Z,56.60
2024-05-09T10:44:51.345Z,55.90
2024-05-09T10:45:51.384Z,56.30
2024-05-09T10:46:51.359Z,56.30
2024-05-09T10:47:51.567Z,55.70
2024-05-09T10:48:51.447Z,55.93
2024-05-09T10:49:51.363Z,56.20
2024-05-09T10:50:51.289Z,56.70
2024-05-09T10:51:51.367Z,56.20
2024-05-09T10:52:51.253Z,55.60
2024-05-09T10:53:51.244Z,55.60
2024-05-09T10:54:51.256Z,55.00
2024-05-09T10:55:51.233Z,56.10
2024-05-09T10:56:51.221Z,55.30
2024-05-09T10:57:51.252Z,55.50
2024-05-09T10:58:51.196Z,55.02
2024-05-09T11:01:05.653Z,56.02
2024-05-09T11:02:02.323Z,55.73
2024-05-09T11:03:02.218Z,55.43
2024-05-09T11:04:02.376Z,55.82
2024-05-09T11:05:02.343Z,55.32
2024-05-09T11:06:02.195Z,56.13
2024-05-09T11:07:04.565Z,54.62
2024-05-09T11:08:02.158Z,55.02
2024-05-09T11:09:02.146Z,54.93
2024-05-09T11:10:02.173Z,54.02
2024-05-09T11:11:02.110Z,53.92
2024-05-09T11:12:02.218Z,54.72
2024-05-09T11:13:02.171Z,53.62
2024-05-09T11:14:02.094Z,54.00
2024-05-09T11:16:13.193Z,54.20
2024-05-09T11:17:13.122Z,53.80
2024-05-09T11:18:13.151Z,53.80
2024-05-09T11:19:13.264Z,54.39
2024-05-09T11:20:19.640Z,54.00
2024-05-09T11:21:14.230Z,53.59
2024-05-09T11:22:13.063Z,53.80
2024-05-09T11:23:12.978Z,54.12
2024-05-09T11:24:13.001Z,54.12
2024-05-09T11:25:13.169Z,54.32
2024-05-09T11:26:12.945Z,54.93
2024-05-09T11:27:12.952Z,55.02
2024-05-09T11:28:13.026Z,54.52
2024-05-09T11:29:14.350Z,54.72
2024-05-09T11:30:17.471Z,54.12
2024-05-09T11:31:13.994Z,53.92
2024-05-09T11:32:12.934Z,53.80
2024-05-09T11:33:12.936Z,53.30
2024-05-09T11:34:12.917Z,53.50
2024-05-09T11:35:12.858Z,52.49
2024-05-09T11:36:12.854Z,52.69
2024-05-09T11:37:12.887Z,53.07
2024-05-09T11:38:12.807Z,52.97
2024-05-09T11:39:12.813Z,52.55
2024-05-09T11:40:21.034Z,52.34
2024-05-09T11:41:13.764Z,52.72
2024-05-09T11:42:12.758Z,51.92
2024-05-09T11:43:12.799Z,52.02
2024-05-09T11:44:12.756Z,51.79
2024-05-09T11:45:12.747Z,51.59
2024-05-09T11:46:12.810Z,52.00
2024-05-09T11:47:12.778Z,51.69
2024-05-09T11:48:12.793Z,52.00
2024-05-09T11:49:19.436Z,51.50
2024-05-09T11:50:19.601Z,51.17
2024-05-09T11:51:13.657Z,50.77
2024-05-09T11:52:12.741Z,50.67
2024-05-09T11:53:12.633Z,50.45
2024-05-09T11:54:12.630Z,50.35
2024-05-09T11:55:12.762Z,49.85
2024-05-09T11:56:12.594Z,50.45
2024-05-09T11:57:12.585Z,50.27
2024-05-09T11:58:12.763Z,50.07
2024-05-09T11:59:12.579Z,49.57
2024-05-09T12:00:18.227Z,50.07
2024-05-09T12:01:13.636Z,49.95
2024-05-09T12:02:12.753Z,49.65
2024-05-09T12:03:12.582Z,49.55
2024-05-09T12:04:12.657Z,49.55
2024-05-09T12:05:12.652Z,49.35
2024-05-09T12:06:12.549Z,50.04
2024-05-09T12:07:13.081Z,49.32
2024-05-09T12:08:12.474Z,48.63
2024-05-09T12:09:12.452Z,48.22
2024-05-09T12:10:16.814Z,48.32
2024-05-09T12:11:13.509Z,48.93
2024-05-09T12:12:12.412Z,47.72
2024-05-09T12:13:12.452Z,48.14
2024-05-09T12:14:12.398Z,48.65
2024-05-09T12:15:12.388Z,49.25
2024-05-09T12:16:12.573Z,49.62
2024-05-09T12:17:12.420Z,49.92
2024-05-09T12:18:12.397Z,48.43
2024-05-09T12:19:12.454Z,48.72
2024-05-09T12:20:21.088Z,48.80
2024-05-09T12:21:13.325Z,48.40
2024-05-09T12:22:12.373Z,48.70
2024-05-09T12:23:12.312Z,49.50
2024-05-09T12:24:14.480Z,49.60
2024-05-09T12:25:12.305Z,49.20
2024-05-09T12:26:12.248Z,49.40
2024-05-09T12:27:12.263Z,48.70
2024-05-09T12:28:12.387Z,48.60
2024-05-09T12:29:12.281Z,48.40
2024-05-09T12:30:17.250Z,48.60
2024-05-09T12:31:13.237Z,48.20
2024-05-09T12:32:12.322Z,48.00
2024-05-09T12:33:13.132Z,48.70
2024-05-09T12:34:12.341Z,48.90
2024-05-09T12:35:12.163Z,49.00
2024-05-09T12:36:12.142Z,48.93
2024-05-09T12:37:12.280Z,49.82
2024-05-09T12:38:12.130Z,49.42
2024-05-09T12:39:12.131Z,50.02
2024-05-09T12:40:18.773Z,49.82
2024-05-09T12:41:13.085Z,49.65
2024-05-09T12:42:16.625Z,50.35
2024-05-09T12:43:13.108Z,49.55
2024-05-09T12:44:12.067Z,49.27
2024-05-09T12:45:12.072Z,50.15
2024-05-09T12:46:12.140Z,50.24
2024-05-09T12:47:12.047Z,49.35
2024-05-09T12:48:12.758Z,49.25
2024-05-09T12:49:13.752Z,48.94
2024-05-09T12:50:21.850Z,48.85
2024-05-09T12:51:12.979Z,48.94
2024-05-09T12:52:12.022Z,49.55
2024-05-09T12:53:11.992Z,50.04
2024-05-09T12:54:11.936Z,49.55
2024-05-09T12:55:12.013Z,48.35
2024-05-09T12:56:11.928Z,48.37
2024-05-09T12:57:11.892Z,49.17